Fort Dodge, IA

3:10 AM CDT on July 23, 2014 (GMT -0500)
Duncombe School area (KIAFORTD8) Elev 1109 ft | 42.51 °N, 94.18 °W | Change Station

Current weather conditions updated 6 seconds ago

Clear
Clear
63.0 °F
Feels Like 63.0 °F
N
0.0
Wind Variable Wind from WNW
Gusts 0.0 mph

Today is forecast to be Much Cooler than yesterday.

Today
High -- | Low -- °F
--% Chance of Precip.
Yesterday
High -- | Low -- °F
Precip. -- in
5:59 AM 8:45 PM
Waning Crescent, 12% visible
Pressure 30.20 in
Visibility 10.0 miles
Clouds Clear
Dew Point 58 °F
Humidity 85%
Rainfall 0.00 in
Snow Depth Not available.
UV 0 out of 12
Pollen 6.10 out of 12
Air Quality Not available.
Flu Activity Not available.
METAR KFOD 230755Z AUTO 35003KT 10SM CLR 17/14 A3020 RMK AO1

More Conditions Fewer Conditions

Pressure 30.20 in
Visibility 10.0 miles
Clouds Clear
Dew Point 58 °F
Humidity 85%
Rainfall 0.00 in
Snow Depth Not available.
UV 0 out of 12
Pollen 6.10 out of 12
Air Quality Not available.
Flu Activity Not available.
METAR KFOD 230755Z AUTO 35003KT 10SM CLR 17/14 A3020 RMK AO1

More Conditions Fewer Conditions

10-Day Weather Forecast

Almanac

Astronomy

Jul. 23, 2014 Rise Set
Actual Time 5:59 AM CDT 8:45 PM CDT
Civil Twilight 5:27 AM CDT 9:18 PM CDT
Nautical Twilight 4:45 AM CDT 9:59 PM CDT
Astronomical Twilight 3:57 AM CDT 10:47 PM CDT
Moon 3:20 AM CDT 6:14 PM CDT
Length of Visible Light 15h 51m
Length of Day
14h 45m
Tomorrow will be 1m 53s shorter.
Waning Crescent, 12% of the Moon is Illuminated
Today
Waning Crescent
Jul 26
New
Aug 3
First Quarter
Aug 10
Full
Aug 17
Last Quarter

Today's Extremes

State Highs State Lows

Community

WunderPhotos

Upload Photos

1,736,529 photos uploaded!

Nearby

Snow Depth

Station Depth Elevation
No new snow has been reported.

Earthquake Activity

City Distance Mag. Time & Date
No recent earthquake activity has been reported nearby.
Minimum magnitude displayed is 2.5.

Coastal Water Temperatures

Place Temperature
No Stations Reporting

Nearby Weather Stations

Station Location Temp. Dew Point Humidity Wind Precip. Elev Updated Type
Duncombe School area, Fort Dodge, IA 63.0 °F 58 °F 85% WNW  at  0.0 mph 0.00 in / hr 1109 ft 3:10 AM CDT Rapid Fire
Expo Pool Area, Fort Dodge, IA 61.0 °F 57 °F 87% WNW  at  0.0 mph - / hr 1093 ft 3:05 AM CDT Normal
IADOT Fort Dodge (US 20), Otho, IA 65 °F 58 °F 78% North  at  6 mph 0.00 in / hr 938 ft 2:19 AM CDT MADIS
Badger IA, Badger, IA 61.3 °F 58 °F 88% NNW  at  3.0 mph 0.00 in / hr 1142 ft 3:10 AM CDT Normal
NW of Badger by DSM River, Badger, IA 61.9 °F 58 °F 87% NNW  at  0.0 mph 0.00 in / hr 1125 ft 3:10 AM CDT Rapid Fire
Pioneer Valley, Humboldt, IA 63.5 °F 59 °F 84% West  at  3.8 mph 0.00 in / hr 1125 ft 3:09 AM CDT Normal
Dakota City, IA 62.0 °F 58 °F 87% NNW  at  0.0 mph 0.00 in / hr 1130 ft 3:01 AM CDT Normal
Lohrville NE, Lohrville, IA 59.9 °F 58 °F 92% NNW  at  2.2 mph 0.00 in / hr 1170 ft 3:10 AM CDT Rapid Fire

Show More Stations Show Fewer Stations